sensor_id;sensor_type;location;lat;lon;timestamp;P1;durP1;ratioP1;P2;durP2;ratioP2
20229;SDS011;12195;55.790;37.572;2024-03-22T00:01:28;7.35;;;4.17;;
20229;SDS011;12195;55.790;37.572;2024-03-22T00:04:00;11.43;;;5.03;;
20229;SDS011;12195;55.790;37.572;2024-03-22T00:06:34;9.90;;;5.15;;
20229;SDS011;12195;55.790;37.572;2024-03-22T00:09:07;12.73;;;4.92;;
20229;SDS011;12195;55.790;37.572;2024-03-22T00:11:39;10.15;;;4.40;;
20229;SDS011;12195;55.790;37.572;2024-03-22T00:14:12;13.53;;;5.42;;
20229;SDS011;12195;55.790;37.572;2024-03-22T00:16:44;13.48;;;4.90;;
20229;SDS011;12195;55.790;37.572;2024-03-22T00:19:17;11.30;;;4.92;;
20229;SDS011;12195;55.790;37.572;2024-03-22T00:21:49;8.30;;;4.58;;
20229;SDS011;12195;55.790;37.572;2024-03-22T00:24:21;10.45;;;4.78;;
20229;SDS011;12195;55.790;37.572;2024-03-22T00:26:54;9.90;;;4.58;;
20229;SDS011;12195;55.790;37.572;2024-03-22T00:29:26;11.30;;;4.62;;
20229;SDS011;12195;55.790;37.572;2024-03-22T00:31:58;8.40;;;4.95;;
20229;SDS011;12195;55.790;37.572;2024-03-22T00:34:30;10.90;;;4.62;;
20229;SDS011;12195;55.790;37.572;2024-03-22T00:37:03;11.25;;;5.28;;
20229;SDS011;12195;55.790;37.572;2024-03-22T00:39:36;16.05;;;4.90;;
20229;SDS011;12195;55.790;37.572;2024-03-22T00:42:09;11.22;;;4.85;;
20229;SDS011;12195;55.790;37.572;2024-03-22T00:44:41;11.55;;;4.70;;
20229;SDS011;12195;55.790;37.572;2024-03-22T00:47:13;10.58;;;5.08;;
20229;SDS011;12195;55.790;37.572;2024-03-22T00:49:45;10.25;;;5.12;;
20229;SDS011;12195;55.790;37.572;2024-03-22T00:52:18;10.63;;;4.92;;
20229;SDS011;12195;55.790;37.572;2024-03-22T00:54:50;12.25;;;5.03;;
20229;SDS011;12195;55.790;37.572;2024-03-22T00:57:23;12.73;;;5.42;;
20229;SDS011;12195;55.790;37.572;2024-03-22T00:59:55;14.60;;;5.25;;
20229;SDS011;12195;55.790;37.572;2024-03-22T01:02:29;14.20;;;5.50;;
20229;SDS011;12195;55.790;37.572;2024-03-22T01:05:01;12.37;;;5.25;;
20229;SDS011;12195;55.790;37.572;2024-03-22T01:07:33;11.75;;;5.00;;
20229;SDS011;12195;55.790;37.572;2024-03-22T01:10:07;16.07;;;5.30;;
20229;SDS011;12195;55.790;37.572;2024-03-22T01:12:39;13.88;;;5.35;;
20229;SDS011;12195;55.790;37.572;2024-03-22T01:15:12;15.80;;;5.20;;
20229;SDS011;12195;55.790;37.572;2024-03-22T01:17:45;8.95;;;5.22;;
20229;SDS011;12195;55.790;37.572;2024-03-22T01:20:17;12.53;;;5.55;;
20229;SDS011;12195;55.790;37.572;2024-03-22T01:22:49;10.82;;;5.08;;
20229;SDS011;12195;55.790;37.572;2024-03-22T01:25:21;10.88;;;6.22;;
20229;SDS011;12195;55.790;37.572;2024-03-22T01:27:54;9.15;;;5.08;;
20229;SDS011;12195;55.790;37.572;2024-03-22T01:30:27;14.38;;;5.55;;
20229;SDS011;12195;55.790;37.572;2024-03-22T01:33:00;13.78;;;5.62;;
20229;SDS011;12195;55.790;37.572;2024-03-22T01:35:32;17.87;;;6.50;;
20229;SDS011;12195;55.790;37.572;2024-03-22T01:38:04;13.53;;;6.40;;
20229;SDS011;12195;55.790;37.572;2024-03-22T01:40:37;13.65;;;5.45;;
20229;SDS011;12195;55.790;37.572;2024-03-22T01:43:09;12.95;;;6.12;;
20229;SDS011;12195;55.790;37.572;2024-03-22T01:45:42;14.75;;;5.60;;
20229;SDS011;12195;55.790;37.572;2024-03-22T01:48:14;16.23;;;5.67;;
20229;SDS011;12195;55.790;37.572;2024-03-22T01:50:46;11.05;;;5.70;;
20229;SDS011;12195;55.790;37.572;2024-03-22T01:53:19;11.73;;;5.90;;
20229;SDS011;12195;55.790;37.572;2024-03-22T01:55:52;9.25;;;5.70;;
20229;SDS011;12195;55.790;37.572;2024-03-22T01:58:24;15.45;;;5.80;;
20229;SDS011;12195;55.790;37.572;2024-03-22T02:00:57;10.05;;;5.17;;
20229;SDS011;12195;55.790;37.572;2024-03-22T02:03:30;14.40;;;5.75;;
20229;SDS011;12195;55.790;37.572;2024-03-22T02:06:02;14.55;;;5.33;;
20229;SDS011;12195;55.790;37.572;2024-03-22T02:08:35;12.28;;;5.25;;
20229;SDS011;12195;55.790;37.572;2024-03-22T02:11:08;10.43;;;4.87;;
20229;SDS011;12195;55.790;37.572;2024-03-22T02:13:41;12.80;;;5.22;;
20229;SDS011;12195;55.790;37.572;2024-03-22T02:16:17;13.85;;;4.95;;
20229;SDS011;12195;55.790;37.572;2024-03-22T02:18:50;17.07;;;5.03;;
20229;SDS011;12195;55.790;37.572;2024-03-22T02:21:23;10.15;;;4.65;;
20229;SDS011;12195;55.790;37.572;2024-03-22T02:23:55;14.07;;;5.35;;
20229;SDS011;12195;55.790;37.572;2024-03-22T02:26:28;7.62;;;4.58;;
20229;SDS011;12195;55.790;37.572;2024-03-22T02:29:00;14.10;;;5.53;;
20229;SDS011;12195;55.790;37.572;2024-03-22T02:31:32;11.20;;;5.12;;
20229;SDS011;12195;55.790;37.572;2024-03-22T02:34:05;15.15;;;4.85;;
20229;SDS011;12195;55.790;37.572;2024-03-22T02:36:37;13.55;;;5.03;;
20229;SDS011;12195;55.790;37.572;2024-03-22T02:39:11;7.50;;;4.67;;
20229;SDS011;12195;55.790;37.572;2024-03-22T02:41:43;9.70;;;4.75;;
20229;SDS011;12195;55.790;37.572;2024-03-22T02:44:15;20.40;;;5.15;;
20229;SDS011;12195;55.790;37.572;2024-03-22T02:46:48;19.87;;;6.00;;
20229;SDS011;12195;55.790;37.572;2024-03-22T02:49:20;21.93;;;5.70;;
20229;SDS011;12195;55.790;37.572;2024-03-22T02:51:53;12.05;;;5.42;;
20229;SDS011;12195;55.790;37.572;2024-03-22T02:54:25;16.30;;;5.15;;
20229;SDS011;12195;55.790;37.572;2024-03-22T02:56:58;11.43;;;5.05;;
20229;SDS011;12195;55.790;37.572;2024-03-22T02:59:32;11.85;;;5.00;;
20229;SDS011;12195;55.790;37.572;2024-03-22T03:02:05;16.65;;;5.25;;
20229;SDS011;12195;55.790;37.572;2024-03-22T03:04:38;10.38;;;4.90;;
20229;SDS011;12195;55.790;37.572;2024-03-22T03:07:10;9.98;;;5.22;;
20229;SDS011;12195;55.790;37.572;2024-03-22T03:09:43;10.85;;;5.28;;
20229;SDS011;12195;55.790;37.572;2024-03-22T03:12:16;12.23;;;4.70;;
20229;SDS011;12195;55.790;37.572;2024-03-22T03:14:49;6.10;;;3.83;;
20229;SDS011;12195;55.790;37.572;2024-03-22T03:17:22;13.18;;;5.00;;
20229;SDS011;12195;55.790;37.572;2024-03-22T03:19:55;7.92;;;4.37;;
20229;SDS011;12195;55.790;37.572;2024-03-22T03:22:30;12.43;;;4.85;;
20229;SDS011;12195;55.790;37.572;2024-03-22T03:25:03;19.65;;;5.53;;
20229;SDS011;12195;55.790;37.572;2024-03-22T03:27:37;19.45;;;5.37;;
20229;SDS011;12195;55.790;37.572;2024-03-22T03:30:10;21.17;;;5.72;;
20229;SDS011;12195;55.790;37.572;2024-03-22T03:32:43;18.30;;;6.15;;
20229;SDS011;12195;55.790;37.572;2024-03-22T03:35:15;14.07;;;5.45;;
20229;SDS011;12195;55.790;37.572;2024-03-22T03:37:48;14.23;;;5.15;;
20229;SDS011;12195;55.790;37.572;2024-03-22T03:40:22;15.80;;;6.05;;
20229;SDS011;12195;55.790;37.572;2024-03-22T03:42:55;14.00;;;5.83;;
20229;SDS011;12195;55.790;37.572;2024-03-22T03:45:28;15.55;;;6.20;;
20229;SDS011;12195;55.790;37.572;2024-03-22T03:48:00;32.48;;;6.62;;
20229;SDS011;12195;55.790;37.572;2024-03-22T03:50:33;23.20;;;6.90;;
20229;SDS011;12195;55.790;37.572;2024-03-22T03:53:06;16.60;;;6.00;;
20229;SDS011;12195;55.790;37.572;2024-03-22T03:55:39;15.45;;;5.90;;
20229;SDS011;12195;55.790;37.572;2024-03-22T03:58:14;18.73;;;5.90;;
20229;SDS011;12195;55.790;37.572;2024-03-22T04:03:20;15.10;;;5.80;;
20229;SDS011;12195;55.790;37.572;2024-03-22T04:05:56;17.77;;;6.45;;
20229;SDS011;12195;55.790;37.572;2024-03-22T04:08:29;12.43;;;6.03;;
20229;SDS011;12195;55.790;37.572;2024-03-22T04:13:34;15.40;;;6.45;;
20229;SDS011;12195;55.790;37.572;2024-03-22T04:16:07;12.80;;;6.50;;
20229;SDS011;12195;55.790;37.572;2024-03-22T04:18:40;14.18;;;6.17;;
20229;SDS011;12195;55.790;37.572;2024-03-22T04:21:15;27.27;;;7.03;;
20229;SDS011;12195;55.790;37.572;2024-03-22T04:26:21;22.15;;;7.08;;
20229;SDS011;12195;55.790;37.572;2024-03-22T04:28:56;14.63;;;6.70;;
20229;SDS011;12195;55.790;37.572;2024-03-22T04:31:29;14.28;;;7.00;;
20229;SDS011;12195;55.790;37.572;2024-03-22T04:34:05;14.73;;;6.78;;
20229;SDS011;12195;55.790;37.572;2024-03-22T04:36:38;18.37;;;7.00;;
20229;SDS011;12195;55.790;37.572;2024-03-22T04:39:15;16.15;;;6.85;;
20229;SDS011;12195;55.790;37.572;2024-03-22T04:41:50;17.98;;;7.15;;
20229;SDS011;12195;55.790;37.572;2024-03-22T04:44:24;14.38;;;7.33;;
20229;SDS011;12195;55.790;37.572;2024-03-22T04:46:57;17.00;;;7.17;;
20229;SDS011;12195;55.790;37.572;2024-03-22T04:49:31;21.10;;;7.75;;
20229;SDS011;12195;55.790;37.572;2024-03-22T04:52:03;13.65;;;6.72;;
20229;SDS011;12195;55.790;37.572;2024-03-22T04:54:38;21.70;;;7.22;;
20229;SDS011;12195;55.790;37.572;2024-03-22T04:57:14;13.35;;;7.80;;
20229;SDS011;12195;55.790;37.572;2024-03-22T04:59:46;25.60;;;8.18;;
20229;SDS011;12195;55.790;37.572;2024-03-22T05:02:19;18.77;;;7.37;;
20229;SDS011;12195;55.790;37.572;2024-03-22T05:04:54;19.82;;;8.40;;
20229;SDS011;12195;55.790;37.572;2024-03-22T05:07:27;14.90;;;7.60;;
20229;SDS011;12195;55.790;37.572;2024-03-22T05:10:01;20.02;;;7.28;;
20229;SDS011;12195;55.790;37.572;2024-03-22T05:12:36;21.02;;;7.30;;
20229;SDS011;12195;55.790;37.572;2024-03-22T05:15:10;17.23;;;7.37;;
20229;SDS011;12195;55.790;37.572;2024-03-22T05:17:43;17.35;;;7.25;;
20229;SDS011;12195;55.790;37.572;2024-03-22T05:20:16;15.65;;;6.70;;
20229;SDS011;12195;55.790;37.572;2024-03-22T05:22:54;15.95;;;7.97;;
20229;SDS011;12195;55.790;37.572;2024-03-22T05:25:27;14.33;;;7.10;;
20229;SDS011;12195;55.790;37.572;2024-03-22T05:28:02;19.98;;;8.33;;
20229;SDS011;12195;55.790;37.572;2024-03-22T05:30:36;18.77;;;8.15;;
20229;SDS011;12195;55.790;37.572;2024-03-22T05:33:09;24.02;;;7.50;;
20229;SDS011;12195;55.790;37.572;2024-03-22T05:35:43;21.85;;;8.50;;
20229;SDS011;12195;55.790;37.572;2024-03-22T05:38:17;19.48;;;7.80;;
20229;SDS011;12195;55.790;37.572;2024-03-22T05:40:51;19.95;;;7.97;;
20229;SDS011;12195;55.790;37.572;2024-03-22T05:43:25;12.13;;;6.78;;
20229;SDS011;12195;55.790;37.572;2024-03-22T05:45:59;19.60;;;7.10;;
20229;SDS011;12195;55.790;37.572;2024-03-22T05:48:34;14.07;;;6.75;;
20229;SDS011;12195;55.790;37.572;2024-03-22T05:51:09;28.60;;;7.25;;
20229;SDS011;12195;55.790;37.572;2024-03-22T05:53:42;13.28;;;6.28;;
20229;SDS011;12195;55.790;37.572;2024-03-22T05:56:16;16.27;;;8.03;;
20229;SDS011;12195;55.790;37.572;2024-03-22T05:58:51;16.62;;;6.50;;
20229;SDS011;12195;55.790;37.572;2024-03-22T06:01:24;15.13;;;6.62;;
20229;SDS011;12195;55.790;37.572;2024-03-22T06:03:57;23.95;;;7.90;;
20229;SDS011;12195;55.790;37.572;2024-03-22T06:06:34;23.85;;;7.78;;
20229;SDS011;12195;55.790;37.572;2024-03-22T06:09:09;51.23;;;9.45;;
20229;SDS011;12195;55.790;37.572;2024-03-22T06:11:44;24.25;;;7.70;;
20229;SDS011;12195;55.790;37.572;2024-03-22T06:14:19;18.82;;;8.70;;
20229;SDS011;12195;55.790;37.572;2024-03-22T06:16:52;20.05;;;7.55;;
20229;SDS011;12195;55.790;37.572;2024-03-22T06:19:30;16.85;;;8.03;;
20229;SDS011;12195;55.790;37.572;2024-03-22T06:22:04;31.00;;;9.08;;
20229;SDS011;12195;55.790;37.572;2024-03-22T06:24:40;24.70;;;8.63;;
20229;SDS011;12195;55.790;37.572;2024-03-22T06:27:12;26.87;;;8.63;;
20229;SDS011;12195;55.790;37.572;2024-03-22T06:29:46;27.87;;;8.25;;
20229;SDS011;12195;55.790;37.572;2024-03-22T06:34:52;19.65;;;7.87;;
20229;SDS011;12195;55.790;37.572;2024-03-22T06:37:26;25.70;;;9.15;;
20229;SDS011;12195;55.790;37.572;2024-03-22T06:40:00;24.60;;;8.48;;
20229;SDS011;12195;55.790;37.572;2024-03-22T06:42:33;23.50;;;8.80;;
20229;SDS011;12195;55.790;37.572;2024-03-22T06:45:07;19.05;;;7.85;;
20229;SDS011;12195;55.790;37.572;2024-03-22T06:47:42;21.33;;;7.95;;
20229;SDS011;12195;55.790;37.572;2024-03-22T06:50:16;21.77;;;8.00;;
20229;SDS011;12195;55.790;37.572;2024-03-22T06:52:58;21.17;;;8.40;;
20229;SDS011;12195;55.790;37.572;2024-03-22T06:55:32;20.70;;;8.08;;
20229;SDS011;12195;55.790;37.572;2024-03-22T06:58:06;24.30;;;9.25;;
20229;SDS011;12195;55.790;37.572;2024-03-22T07:00:38;21.87;;;8.28;;
20229;SDS011;12195;55.790;37.572;2024-03-22T07:03:12;32.93;;;8.93;;
20229;SDS011;12195;55.790;37.572;2024-03-22T07:05:51;18.62;;;8.73;;
20229;SDS011;12195;55.790;37.572;2024-03-22T07:08:23;20.92;;;8.60;;
20229;SDS011;12195;55.790;37.572;2024-03-22T07:10:57;23.87;;;9.05;;
20229;SDS011;12195;55.790;37.572;2024-03-22T07:13:31;23.62;;;8.38;;
20229;SDS011;12195;55.790;37.572;2024-03-22T07:18:37;26.42;;;7.90;;
20229;SDS011;12195;55.790;37.572;2024-03-22T07:21:11;26.82;;;8.85;;
20229;SDS011;12195;55.790;37.572;2024-03-22T07:23:46;18.95;;;8.05;;
20229;SDS011;12195;55.790;37.572;2024-03-22T07:26:22;29.75;;;9.13;;
20229;SDS011;12195;55.790;37.572;2024-03-22T07:28:58;32.05;;;9.10;;
20229;SDS011;12195;55.790;37.572;2024-03-22T07:31:35;19.70;;;7.97;;
20229;SDS011;12195;55.790;37.572;2024-03-22T07:34:15;21.40;;;8.25;;
20229;SDS011;12195;55.790;37.572;2024-03-22T07:36:49;19.42;;;7.00;;
20229;SDS011;12195;55.790;37.572;2024-03-22T07:39:24;21.40;;;8.03;;
20229;SDS011;12195;55.790;37.572;2024-03-22T07:42:08;31.77;;;8.75;;
20229;SDS011;12195;55.790;37.572;2024-03-22T07:44:43;16.45;;;8.00;;
20229;SDS011;12195;55.790;37.572;2024-03-22T07:47:20;27.52;;;8.20;;
20229;SDS011;12195;55.790;37.572;2024-03-22T07:49:55;17.95;;;6.78;;
20229;SDS011;12195;55.790;37.572;2024-03-22T07:52:32;22.50;;;7.33;;
20229;SDS011;12195;55.790;37.572;2024-03-22T07:55:06;23.02;;;8.00;;
20229;SDS011;12195;55.790;37.572;2024-03-22T07:57:41;32.93;;;8.03;;
20229;SDS011;12195;55.790;37.572;2024-03-22T08:00:16;28.10;;;7.60;;
20229;SDS011;12195;55.790;37.572;2024-03-22T08:02:49;20.00;;;6.28;;
20229;SDS011;12195;55.790;37.572;2024-03-22T08:05:25;32.60;;;8.00;;
20229;SDS011;12195;55.790;37.572;2024-03-22T08:07:59;28.42;;;8.23;;
20229;SDS011;12195;55.790;37.572;2024-03-22T08:10:35;32.17;;;7.97;;
20229;SDS011;12195;55.790;37.572;2024-03-22T08:13:09;25.72;;;6.97;;
20229;SDS011;12195;55.790;37.572;2024-03-22T08:15:44;26.60;;;7.03;;
20229;SDS011;12195;55.790;37.572;2024-03-22T08:18:19;17.70;;;5.85;;
20229;SDS011;12195;55.790;37.572;2024-03-22T08:20:57;15.65;;;5.25;;
20229;SDS011;12195;55.790;37.572;2024-03-22T08:23:33;33.18;;;7.03;;
20229;SDS011;12195;55.790;37.572;2024-03-22T08:26:13;14.23;;;5.70;;
20229;SDS011;12195;55.790;37.572;2024-03-22T08:28:48;38.02;;;7.55;;
20229;SDS011;12195;55.790;37.572;2024-03-22T08:31:24;18.90;;;5.97;;
20229;SDS011;12195;55.790;37.572;2024-03-22T08:34:00;41.75;;;6.20;;
20229;SDS011;12195;55.790;37.572;2024-03-22T08:36:37;31.30;;;7.08;;
20229;SDS011;12195;55.790;37.572;2024-03-22T08:39:11;16.35;;;4.70;;
20229;SDS011;12195;55.790;37.572;2024-03-22T08:41:46;18.45;;;4.80;;
20229;SDS011;12195;55.790;37.572;2024-03-22T08:44:19;26.73;;;5.43;;
20229;SDS011;12195;55.790;37.572;2024-03-22T08:46:56;22.45;;;5.55;;
20229;SDS011;12195;55.790;37.572;2024-03-22T08:49:29;42.03;;;8.30;;
20229;SDS011;12195;55.790;37.572;2024-03-22T08:52:05;23.42;;;5.33;;
20229;SDS011;12195;55.790;37.572;2024-03-22T08:54:41;31.37;;;7.58;;
20229;SDS011;12195;55.790;37.572;2024-03-22T08:57:15;26.12;;;6.22;;
20229;SDS011;12195;55.790;37.572;2024-03-22T08:59:48;17.25;;;5.65;;
20229;SDS011;12195;55.790;37.572;2024-03-22T09:02:23;13.75;;;5.22;;
20229;SDS011;12195;55.790;37.572;2024-03-22T09:04:58;19.00;;;5.95;;
20229;SDS011;12195;55.790;37.572;2024-03-22T09:07:33;21.52;;;5.97;;
20229;SDS011;12195;55.790;37.572;2024-03-22T09:10:06;33.42;;;6.08;;
20229;SDS011;12195;55.790;37.572;2024-03-22T09:12:41;13.72;;;4.95;;
20229;SDS011;12195;55.790;37.572;2024-03-22T09:15:14;25.75;;;6.42;;
20229;SDS011;12195;55.790;37.572;2024-03-22T09:17:47;29.82;;;7.15;;
20229;SDS011;12195;55.790;37.572;2024-03-22T09:20:21;15.83;;;5.55;;
20229;SDS011;12195;55.790;37.572;2024-03-22T09:22:55;24.43;;;7.15;;
20229;SDS011;12195;55.790;37.572;2024-03-22T09:25:29;20.50;;;5.50;;
20229;SDS011;12195;55.790;37.572;2024-03-22T09:28:01;26.70;;;6.65;;
20229;SDS011;12195;55.790;37.572;2024-03-22T09:30:40;25.10;;;5.93;;
20229;SDS011;12195;55.790;37.572;2024-03-22T09:33:12;20.08;;;7.65;;
20229;SDS011;12195;55.790;37.572;2024-03-22T09:35:46;21.00;;;5.37;;
20229;SDS011;12195;55.790;37.572;2024-03-22T09:38:18;20.95;;;5.53;;
20229;SDS011;12195;55.790;37.572;2024-03-22T09:40:53;24.37;;;5.25;;
20229;SDS011;12195;55.790;37.572;2024-03-22T09:43:27;23.92;;;6.50;;
20229;SDS011;12195;55.790;37.572;2024-03-22T09:46:04;24.80;;;6.47;;
20229;SDS011;12195;55.790;37.572;2024-03-22T09:48:44;18.45;;;5.83;;
20229;SDS011;12195;55.790;37.572;2024-03-22T09:51:21;19.20;;;4.85;;
20229;SDS011;12195;55.790;37.572;2024-03-22T09:53:54;13.20;;;4.57;;
20229;SDS011;12195;55.790;37.572;2024-03-22T09:56:28;18.45;;;4.72;;
20229;SDS011;12195;55.790;37.572;2024-03-22T09:59:03;13.10;;;4.90;;
20229;SDS011;12195;55.790;37.572;2024-03-22T10:01:39;21.70;;;5.92;;
20229;SDS011;12195;55.790;37.572;2024-03-22T10:04:13;16.40;;;5.03;;
20229;SDS011;12195;55.790;37.572;2024-03-22T10:06:47;13.47;;;5.00;;
20229;SDS011;12195;55.790;37.572;2024-03-22T10:09:27;13.78;;;4.92;;
20229;SDS011;12195;55.790;37.572;2024-03-22T10:12:03;18.07;;;5.80;;
20229;SDS011;12195;55.790;37.572;2024-03-22T10:14:38;22.87;;;5.55;;
20229;SDS011;12195;55.790;37.572;2024-03-22T10:17:13;22.70;;;6.17;;
20229;SDS011;12195;55.790;37.572;2024-03-22T10:22:23;17.48;;;5.97;;
20229;SDS011;12195;55.790;37.572;2024-03-22T10:25:01;17.27;;;5.42;;
20229;SDS011;12195;55.790;37.572;2024-03-22T10:27:38;22.93;;;5.47;;
20229;SDS011;12195;55.790;37.572;2024-03-22T10:30:13;9.33;;;4.40;;
20229;SDS011;12195;55.790;37.572;2024-03-22T10:32:49;22.52;;;5.85;;
20229;SDS011;12195;55.790;37.572;2024-03-22T10:35:25;13.38;;;4.67;;
20229;SDS011;12195;55.790;37.572;2024-03-22T10:37:58;13.28;;;5.03;;
20229;SDS011;12195;55.790;37.572;2024-03-22T10:40:34;14.47;;;4.75;;
20229;SDS011;12195;55.790;37.572;2024-03-22T10:43:08;10.55;;;4.22;;
20229;SDS011;12195;55.790;37.572;2024-03-22T10:45:41;24.85;;;6.75;;
20229;SDS011;12195;55.790;37.572;2024-03-22T10:48:16;18.20;;;5.12;;
20229;SDS011;12195;55.790;37.572;2024-03-22T10:50:53;20.80;;;5.60;;
20229;SDS011;12195;55.790;37.572;2024-03-22T10:53:31;37.55;;;6.33;;
20229;SDS011;12195;55.790;37.572;2024-03-22T10:56:06;17.60;;;5.83;;
20229;SDS011;12195;55.790;37.572;2024-03-22T10:58:41;14.53;;;4.47;;
20229;SDS011;12195;55.790;37.572;2024-03-22T11:01:21;22.30;;;4.93;;
20229;SDS011;12195;55.790;37.572;2024-03-22T11:04:04;25.27;;;5.65;;
20229;SDS011;12195;55.790;37.572;2024-03-22T11:06:40;17.65;;;4.72;;
20229;SDS011;12195;55.790;37.572;2024-03-22T11:09:23;12.30;;;3.85;;
20229;SDS011;12195;55.790;37.572;2024-03-22T11:11:59;23.98;;;6.15;;
20229;SDS011;12195;55.790;37.572;2024-03-22T11:14:33;8.25;;;4.28;;
20229;SDS011;12195;55.790;37.572;2024-03-22T11:17:06;16.48;;;4.53;;
20229;SDS011;12195;55.790;37.572;2024-03-22T11:19:42;12.78;;;4.15;;
20229;SDS011;12195;55.790;37.572;2024-03-22T11:22:17;21.02;;;4.55;;
20229;SDS011;12195;55.790;37.572;2024-03-22T11:24:53;24.43;;;4.90;;
20229;SDS011;12195;55.790;37.572;2024-03-22T11:27:46;5.67;;;3.45;;
20229;SDS011;12195;55.790;37.572;2024-03-22T11:30:25;16.45;;;4.30;;
20229;SDS011;12195;55.790;37.572;2024-03-22T11:33:02;13.22;;;3.83;;
20229;SDS011;12195;55.790;37.572;2024-03-22T11:35:42;7.12;;;3.65;;
20229;SDS011;12195;55.790;37.572;2024-03-22T11:38:16;19.37;;;4.33;;
20229;SDS011;12195;55.790;37.572;2024-03-22T11:43:25;13.90;;;3.83;;
20229;SDS011;12195;55.790;37.572;2024-03-22T11:46:02;10.23;;;4.25;;
20229;SDS011;12195;55.790;37.572;2024-03-22T11:48:38;16.95;;;4.47;;
20229;SDS011;12195;55.790;37.572;2024-03-22T11:51:12;23.67;;;5.35;;
20229;SDS011;12195;55.790;37.572;2024-03-22T11:53:50;17.87;;;5.03;;
20229;SDS011;12195;55.790;37.572;2024-03-22T11:56:25;13.43;;;4.60;;
20229;SDS011;12195;55.790;37.572;2024-03-22T11:58:58;25.15;;;5.85;;
20229;SDS011;12195;55.790;37.572;2024-03-22T12:01:33;18.30;;;4.37;;
20229;SDS011;12195;55.790;37.572;2024-03-22T12:04:07;15.97;;;4.70;;
20229;SDS011;12195;55.790;37.572;2024-03-22T12:06:43;28.77;;;5.70;;
20229;SDS011;12195;55.790;37.572;2024-03-22T12:09:16;24.80;;;7.62;;
20229;SDS011;12195;55.790;37.572;2024-03-22T12:11:49;32.75;;;6.47;;
20229;SDS011;12195;55.790;37.572;2024-03-22T12:14:24;25.70;;;6.37;;
20229;SDS011;12195;55.790;37.572;2024-03-22T12:16:59;20.23;;;5.40;;
20229;SDS011;12195;55.790;37.572;2024-03-22T12:22:05;28.45;;;5.55;;
20229;SDS011;12195;55.790;37.572;2024-03-22T12:24:39;22.95;;;5.33;;
20229;SDS011;12195;55.790;37.572;2024-03-22T12:27:13;15.72;;;4.62;;
20229;SDS011;12195;55.790;37.572;2024-03-22T12:29:48;10.13;;;3.85;;
20229;SDS011;12195;55.790;37.572;2024-03-22T12:32:23;11.60;;;4.55;;
20229;SDS011;12195;55.790;37.572;2024-03-22T12:34:57;19.48;;;4.78;;
20229;SDS011;12195;55.790;37.572;2024-03-22T12:37:33;13.08;;;4.53;;
20229;SDS011;12195;55.790;37.572;2024-03-22T12:40:06;16.32;;;5.20;;
20229;SDS011;12195;55.790;37.572;2024-03-22T12:42:42;19.62;;;5.20;;
20229;SDS011;12195;55.790;37.572;2024-03-22T12:45:15;9.98;;;4.37;;
20229;SDS011;12195;55.790;37.572;2024-03-22T12:47:50;18.52;;;4.75;;
20229;SDS011;12195;55.790;37.572;2024-03-22T12:50:24;7.67;;;3.92;;
20229;SDS011;12195;55.790;37.572;2024-03-22T12:53:00;11.30;;;4.00;;
20229;SDS011;12195;55.790;37.572;2024-03-22T12:55:35;11.45;;;4.58;;
20229;SDS011;12195;55.790;37.572;2024-03-22T12:58:07;10.40;;;3.70;;
20229;SDS011;12195;55.790;37.572;2024-03-22T13:00:42;15.65;;;4.20;;
20229;SDS011;12195;55.790;37.572;2024-03-22T13:03:16;18.00;;;5.10;;
20229;SDS011;12195;55.790;37.572;2024-03-22T13:05:49;22.65;;;4.78;;
20229;SDS011;12195;55.790;37.572;2024-03-22T13:08:23;16.87;;;4.20;;
20229;SDS011;12195;55.790;37.572;2024-03-22T13:10:59;8.80;;;4.47;;
20229;SDS011;12195;55.790;37.572;2024-03-22T13:13:33;21.37;;;5.63;;
20229;SDS011;12195;55.790;37.572;2024-03-22T13:16:06;13.93;;;5.22;;
20229;SDS011;12195;55.790;37.572;2024-03-22T13:18:42;11.08;;;3.52;;
20229;SDS011;12195;55.790;37.572;2024-03-22T13:21:17;12.63;;;3.85;;
20229;SDS011;12195;55.790;37.572;2024-03-22T13:23:51;12.25;;;4.53;;
20229;SDS011;12195;55.790;37.572;2024-03-22T13:26:26;10.30;;;3.90;;
20229;SDS011;12195;55.790;37.572;2024-03-22T13:29:05;12.23;;;3.70;;
20229;SDS011;12195;55.790;37.572;2024-03-22T13:31:40;18.62;;;4.75;;
20229;SDS011;12195;55.790;37.572;2024-03-22T13:34:17;10.30;;;3.85;;
20229;SDS011;12195;55.790;37.572;2024-03-22T13:37:09;14.28;;;4.60;;
20229;SDS011;12195;55.790;37.572;2024-03-22T13:39:47;10.13;;;3.58;;
20229;SDS011;12195;55.790;37.572;2024-03-22T13:42:22;9.03;;;3.55;;
20229;SDS011;12195;55.790;37.572;2024-03-22T13:44:58;9.60;;;3.98;;
20229;SDS011;12195;55.790;37.572;2024-03-22T13:47:31;14.10;;;4.25;;
20229;SDS011;12195;55.790;37.572;2024-03-22T13:50:06;6.92;;;3.10;;
20229;SDS011;12195;55.790;37.572;2024-03-22T13:52:42;10.30;;;3.20;;
20229;SDS011;12195;55.790;37.572;2024-03-22T13:55:16;8.05;;;3.40;;
20229;SDS011;12195;55.790;37.572;2024-03-22T13:57:50;18.75;;;3.80;;
20229;SDS011;12195;55.790;37.572;2024-03-22T14:00:24;14.53;;;4.40;;
20229;SDS011;12195;55.790;37.572;2024-03-22T14:02:58;26.48;;;4.72;;
20229;SDS011;12195;55.790;37.572;2024-03-22T14:05:30;13.28;;;3.62;;
20229;SDS011;12195;55.790;37.572;2024-03-22T14:08:03;19.25;;;4.58;;
20229;SDS011;12195;55.790;37.572;2024-03-22T14:10:36;11.35;;;3.70;;
20229;SDS011;12195;55.790;37.572;2024-03-22T14:13:09;14.70;;;4.05;;
20229;SDS011;12195;55.790;37.572;2024-03-22T14:15:42;12.50;;;3.30;;
20229;SDS011;12195;55.790;37.572;2024-03-22T14:18:16;15.25;;;3.52;;
20229;SDS011;12195;55.790;37.572;2024-03-22T14:20:48;14.53;;;7.12;;
20229;SDS011;12195;55.790;37.572;2024-03-22T14:23:22;12.93;;;3.62;;
20229;SDS011;12195;55.790;37.572;2024-03-22T14:25:55;8.28;;;2.95;;
20229;SDS011;12195;55.790;37.572;2024-03-22T14:28:28;10.38;;;3.02;;
20229;SDS011;12195;55.790;37.572;2024-03-22T14:31:01;13.13;;;3.70;;
20229;SDS011;12195;55.790;37.572;2024-03-22T14:33:36;18.98;;;4.50;;
20229;SDS011;12195;55.790;37.572;2024-03-22T14:36:12;11.83;;;4.05;;
20229;SDS011;12195;55.790;37.572;2024-03-22T14:38:45;8.63;;;3.33;;
20229;SDS011;12195;55.790;37.572;2024-03-22T14:41:18;12.85;;;4.42;;
20229;SDS011;12195;55.790;37.572;2024-03-22T14:43:50;6.45;;;3.20;;
20229;SDS011;12195;55.790;37.572;2024-03-22T14:46:23;16.15;;;8.10;;
20229;SDS011;12195;55.790;37.572;2024-03-22T14:48:56;9.28;;;3.65;;
20229;SDS011;12195;55.790;37.572;2024-03-22T14:51:30;12.03;;;3.40;;
20229;SDS011;12195;55.790;37.572;2024-03-22T14:54:03;8.88;;;3.25;;
20229;SDS011;12195;55.790;37.572;2024-03-22T14:56:36;17.70;;;3.57;;
20229;SDS011;12195;55.790;37.572;2024-03-22T14:59:10;14.63;;;3.58;;
20229;SDS011;12195;55.790;37.572;2024-03-22T15:01:43;26.50;;;4.35;;
20229;SDS011;12195;55.790;37.572;2024-03-22T15:04:15;5.35;;;3.22;;
20229;SDS011;12195;55.790;37.572;2024-03-22T15:06:50;9.95;;;3.33;;
20229;SDS011;12195;55.790;37.572;2024-03-22T15:09:25;14.58;;;4.17;;
20229;SDS011;12195;55.790;37.572;2024-03-22T15:11:58;9.45;;;3.45;;
20229;SDS011;12195;55.790;37.572;2024-03-22T15:14:34;24.85;;;3.95;;
20229;SDS011;12195;55.790;37.572;2024-03-22T15:17:07;11.80;;;3.77;;
20229;SDS011;12195;55.790;37.572;2024-03-22T15:19:43;10.32;;;4.00;;
20229;SDS011;12195;55.790;37.572;2024-03-22T15:22:16;8.75;;;3.17;;
20229;SDS011;12195;55.790;37.572;2024-03-22T15:24:53;13.43;;;3.42;;